• Join FlightAware (Why Join?)
  • Login
  • US Flag 
04:27PM EST


 

Airport Tracker/Info


-or-


 

Live Flight TrackerFlight Track Log ✈ SKQ45 ✈ 15-Apr-2013 ✈ KPAH - KSTL

Flight Track Log - Related Links

Times and Time Zones

All times are in EDT time to prevent confusion due to time zone crossing. See the SKQ45 flight status page for this flight to view local times or setup timezone preferences in your user account.

Time Position Orientation Groundspeed Altitude Reporting Facility
EDT Latitude Longitude Course Direction KTS MPH feet Rate Location/Type
11:04PM 37.0814 -88.7517 39° Northeast 187 215 3,800  Level Kansas City Center
11:05PM 37.1031 -88.7756 319° Northwest 228 262 5,200 1,500 Climbing Memphis Center
11:06PM 37.1411 -88.8139 321° Northwest 192 221 6,000 780 Climbing Memphis Center
11:07PM 37.1811 -88.8600 317° Northwest 186 214 6,800 780 Climbing Memphis Center
11:08PM 37.2256 -88.9086 319° Northwest 192 221 7,600 720 Climbing Memphis Center
11:09PM 37.2936 -88.9800 320° Northwest 210 242 8,800 720 Climbing Kansas City Center
11:10PM 37.3383 -89.0297 319° Northwest 213 245 9,600 600 Climbing Kansas City Center
11:11PM 37.3875 -89.0744 324° Northwest 217 250 10,100 180 Climbing Kansas City Center
11:12PM 37.4394 -89.1242 323° Northwest 230 265 10,000  Descending Kansas City Center
11:13PM 37.4942 -89.1733 325° Northwest 239 275 10,100  Climbing Kansas City Center
11:14PM 37.5486 -89.2256 323° Northwest 244 281 10,100  Level Kansas City Center
11:15PM 37.6017 -89.2778 322° Northwest 243 280 10,100 -60 Level Kansas City Center
11:16PM 37.6406 -89.3447 306° West 238 274 10,000  Descending Kansas City Center
11:17PM 37.6889 -89.4178 310° West 237 273 10,100  Climbing Kansas City Center
11:18PM 37.7319 -89.4786 312° West 235 270 10,100 -60 Level Kansas City Center
11:19PM 37.7747 -89.5414 311° West 234 269 10,000  Descending Kansas City Center
11:20PM 37.8172 -89.6042 311° West 236 272 10,100  Climbing Kansas City Center
11:21PM 37.8631 -89.6714 311° West 239 275 10,000 -360 Descending Kansas City Center
11:23PM 37.9092 -89.6844 347° North 246 283 9,400 -540 Descending FAA TRACON SMA TRACON (SMA)
11:23PM 37.9247 -89.7122 305° West 246 283 9,200 -600 Descending FAA TRACON SMA TRACON (SMA)
11:23PM 37.9386 -89.7311 313° West 245 282 9,000 -660 Descending FAA TRACON SMA TRACON (SMA)
11:24PM 37.9531 -89.7500 314° West 244 281 8,800 -600 Descending FAA TRACON SMA TRACON (SMA)
11:24PM 37.9689 -89.7761 308° West 242 278 8,600 -480 Descending FAA TRACON SMA TRACON (SMA)
11:24PM 37.9828 -89.7961 311° West 242 278 8,500 -480 Descending FAA TRACON SMA TRACON (SMA)
11:25PM 37.9953 -89.8167 308° West 241 277 8,300 -600 Descending FAA TRACON SMA TRACON (SMA)
11:25PM 38.0122 -89.8414 311° West 241 277 8,100 -480 Descending FAA TRACON SMA TRACON (SMA)
11:25PM 38.0256 -89.8611 311° West 240 276 8,000 -360 Descending FAA TRACON SMA TRACON (SMA)
11:26PM 38.0392 -89.8806 312° West 239 275 7,900 -180 Descending FAA TRACON SMA TRACON (SMA)
11:26PM 38.0553 -89.9064 308° West 241 277 7,900  Level FAA TRACON SMA TRACON (SMA)
11:26PM 38.0678 -89.9256 310° West 235 270 7,900  Level FAA TRACON SMA TRACON (SMA)
11:27PM 38.0806 -89.9444 311° West 231 266 7,900  Level FAA TRACON SMA TRACON (SMA)
11:27PM 38.0956 -89.9703 306° West 230 265 7,900  Level FAA TRACON SMA TRACON (SMA)
11:27PM 38.1089 -89.9883 313° West 230 265 7,900  Level FAA TRACON SMA TRACON (SMA)
11:28PM 38.1219 -90.0069 312° West 231 266 7,900  Level FAA TRACON SMA TRACON (SMA)
11:28PM 38.1467 -90.0203 337° Northwest 248 285 7,900  Level FAA TRACON SMA TRACON (SMA)
11:28PM 38.1697 -90.0219 357° North 268 308 7,900  Level FAA TRACON SMA TRACON (SMA)
11:29PM 38.1931 -90.0233 357° North 273 314 7,900  Level FAA TRACON SMA TRACON (SMA)
11:29PM 38.2222 -90.0239 359° North 273 314 7,900  Level FAA TRACON SMA TRACON (SMA)
11:29PM 38.2453 -90.0256 357° North 271 312 7,900  Level FAA TRACON SMA TRACON (SMA)
11:30PM 38.2683 -90.0264 358° North 270 311 7,900 -180 Level FAA TRACON SMA TRACON (SMA)
11:30PM 38.2975 -90.0275 358° North 270 311 7,800 -300 Descending FAA TRACON SMA TRACON (SMA)
11:30PM 38.3203 -90.0294 356° North 271 312 7,700 -480 Descending FAA TRACON SMA TRACON (SMA)
11:31PM 38.3439 -90.0306 358° North 273 314 7,500 -600 Descending FAA TRACON SMA TRACON (SMA)
11:31PM 38.3731 -90.0322 357° North 273 314 7,300 -480 Descending FAA TRACON SMA TRACON (SMA)
11:31PM 38.3964 -90.0347 355° North 272 313 7,200 -480 Descending FAA TRACON SMA TRACON (SMA)
11:32PM 38.4256 -90.0367 357° North 273 314 7,000 -600 Descending FAA TRACON SMA TRACON (SMA)
11:32PM 38.4486 -90.0383 357° North 272 313 6,800 -480 Descending FAA TRACON SMA TRACON (SMA)
11:32PM 38.4717 -90.0406 356° North 270 311 6,700 -480 Descending FAA TRACON SMA TRACON (SMA)
11:33PM 38.4947 -90.0436 354° North 270 311 6,500 -780 Descending FAA TRACON SMA TRACON (SMA)
11:33PM 38.5236 -90.0475 354° North 271 312 6,200 -900 Descending FAA TRACON SMA TRACON (SMA)
11:33PM 38.5461 -90.0511 353° North 269 310 5,900 -1,080 Descending FAA TRACON SMA TRACON (SMA)
11:34PM 38.5753 -90.0564 352° North 272 313 5,500 -1,080 Descending FAA TRACON SMA TRACON (SMA)
11:34PM 38.5972 -90.0608 351° North 266 306 5,200 -900 Descending FAA TRACON SMA TRACON (SMA)
11:34PM 38.6175 -90.0675 346° North 253 291 4,900 -1,080 Descending FAA TRACON SMA TRACON (SMA)
11:35PM 38.6383 -90.0831 330° Northwest 231 266 4,500 -1,080 Descending FAA TRACON SMA TRACON (SMA)
11:35PM 38.6472 -90.1022 301° West 217 250 4,200 -1,260 Descending FAA TRACON SMA TRACON (SMA)
11:35PM 38.6544 -90.1208 296° West 196 226 3,700 -1,500 Descending FAA TRACON SMA TRACON (SMA)
11:36PM 38.6642 -90.1428 300° West 183 211 3,200 -1,320 Descending FAA TRACON SMA TRACON (SMA)
11:36PM 38.6717 -90.1592 300° West 176 203 2,800 -1,080 Descending FAA TRACON SMA TRACON (SMA)
11:36PM 38.6800 -90.1753 304° West 177 204 2,500 -1,080 Descending FAA TRACON SMA TRACON (SMA)
11:37PM 38.6906 -90.1967 302° West 183 211 2,100 -1,080 Descending FAA TRACON SMA TRACON (SMA)
11:37PM 38.6989 -90.2142 301° West 190 219 1,800 -960 Descending FAA TRACON SMA TRACON (SMA)
11:37PM 38.7067 -90.2297 303° West 176 203 1,500 -780 Descending FAA TRACON SMA TRACON (SMA)
11:38PM 38.7142 -90.2444 303° West 135 155 1,300 -600 Descending FAA TRACON SMA TRACON (SMA)
11:38PM 38.7192 -90.2547 302° West 114 131 1,100 -480 Descending FAA TRACON SMA TRACON (SMA)
11:38PM 38.7244 -90.2656 302° West 113 130 1,000 -480 Descending FAA TRACON SMA TRACON (SMA)
11:39PM 38.7311 -90.2783 304° West 111 128 800 -600 Descending FAA TRACON SMA TRACON (SMA)